sensor_id;sensor_type;location;lat;lon;timestamp;temperature;humidity
17331;DHT22;8783;52.448;4.638;2024-01-10T00:01:18;14.70;97.20
17331;DHT22;8783;52.448;4.638;2024-01-10T00:03:44;14.70;97.10
17331;DHT22;8783;52.448;4.638;2024-01-10T00:06:10;14.70;97.10
17331;DHT22;8783;52.448;4.638;2024-01-10T00:08:36;14.70;97.10
17331;DHT22;8783;52.448;4.638;2024-01-10T00:11:02;14.70;97.10
17331;DHT22;8783;52.448;4.638;2024-01-10T00:13:29;14.80;97.10
17331;DHT22;8783;52.448;4.638;2024-01-10T00:15:54;14.80;97.10
17331;DHT22;8783;52.448;4.638;2024-01-10T00:18:21;14.80;97.10
17331;DHT22;8783;52.448;4.638;2024-01-10T00:20:47;14.80;97.10
17331;DHT22;8783;52.448;4.638;2024-01-10T00:23:13;14.80;97.00
17331;DHT22;8783;52.448;4.638;2024-01-10T00:25:38;14.80;97.00
17331;DHT22;8783;52.448;4.638;2024-01-10T00:28:05;14.80;97.00
17331;DHT22;8783;52.448;4.638;2024-01-10T00:30:30;14.80;97.30
17331;DHT22;8783;52.448;4.638;2024-01-10T00:32:57;14.80;96.90
17331;DHT22;8783;52.448;4.638;2024-01-10T00:35:22;14.90;97.30
17331;DHT22;8783;52.448;4.638;2024-01-10T00:37:48;14.90;96.90
17331;DHT22;8783;52.448;4.638;2024-01-10T00:40:14;14.90;96.90
17331;DHT22;8783;52.448;4.638;2024-01-10T00:42:39;14.90;96.90
17331;DHT22;8783;52.448;4.638;2024-01-10T00:45:05;14.90;96.90
17331;DHT22;8783;52.448;4.638;2024-01-10T00:47:31;14.90;96.90
17331;DHT22;8783;52.448;4.638;2024-01-10T00:49:56;14.90;96.90
17331;DHT22;8783;52.448;4.638;2024-01-10T00:52:22;14.90;96.90
17331;DHT22;8783;52.448;4.638;2024-01-10T00:54:47;14.90;96.90
17331;DHT22;8783;52.448;4.638;2024-01-10T00:57:13;14.90;96.90
17331;DHT22;8783;52.448;4.638;2024-01-10T00:59:40;14.90;96.90
17331;DHT22;8783;52.448;4.638;2024-01-10T01:02:06;14.90;96.90
17331;DHT22;8783;52.448;4.638;2024-01-10T01:04:31;14.90;96.90
17331;DHT22;8783;52.448;4.638;2024-01-10T01:06:57;14.90;96.90
17331;DHT22;8783;52.448;4.638;2024-01-10T01:09:22;14.90;96.80
17331;DHT22;8783;52.448;4.638;2024-01-10T01:11:48;15.00;96.90
17331;DHT22;8783;52.448;4.638;2024-01-10T01:14:14;15.00;96.80
17331;DHT22;8783;52.448;4.638;2024-01-10T01:16:39;15.00;96.80
17331;DHT22;8783;52.448;4.638;2024-01-10T01:19:05;15.00;96.80
17331;DHT22;8783;52.448;4.638;2024-01-10T01:21:30;15.00;96.70
17331;DHT22;8783;52.448;4.638;2024-01-10T01:23:56;15.00;96.80
17331;DHT22;8783;52.448;4.638;2024-01-10T01:26:21;15.00;96.80
17331;DHT22;8783;52.448;4.638;2024-01-10T01:28:47;15.00;96.80
17331;DHT22;8783;52.448;4.638;2024-01-10T01:31:13;15.00;96.70
17331;DHT22;8783;52.448;4.638;2024-01-10T01:33:38;15.00;96.80
17331;DHT22;8783;52.448;4.638;2024-01-10T01:36:05;15.00;96.70
17331;DHT22;8783;52.448;4.638;2024-01-10T01:38:31;15.00;96.80
17331;DHT22;8783;52.448;4.638;2024-01-10T01:40:57;15.00;96.80
17331;DHT22;8783;52.448;4.638;2024-01-10T01:43:24;15.00;96.80
17331;DHT22;8783;52.448;4.638;2024-01-10T01:45:52;15.10;96.80
17331;DHT22;8783;52.448;4.638;2024-01-10T01:48:19;15.00;96.70
17331;DHT22;8783;52.448;4.638;2024-01-10T01:50:46;15.00;96.70
17331;DHT22;8783;52.448;4.638;2024-01-10T01:53:16;15.00;96.80
17331;DHT22;8783;52.448;4.638;2024-01-10T01:55:43;15.10;96.80
17331;DHT22;8783;52.448;4.638;2024-01-10T01:58:10;15.10;96.70
17331;DHT22;8783;52.448;4.638;2024-01-10T02:00:36;15.10;96.70
17331;DHT22;8783;52.448;4.638;2024-01-10T02:03:02;15.00;96.70
17331;DHT22;8783;52.448;4.638;2024-01-10T02:05:29;15.10;96.70
17331;DHT22;8783;52.448;4.638;2024-01-10T02:07:55;15.10;97.10
17331;DHT22;8783;52.448;4.638;2024-01-10T02:10:20;15.00;96.70
17331;DHT22;8783;52.448;4.638;2024-01-10T02:12:46;15.00;96.60
17331;DHT22;8783;52.448;4.638;2024-01-10T02:15:13;15.10;96.70
17331;DHT22;8783;52.448;4.638;2024-01-10T02:17:39;15.10;96.70
17331;DHT22;8783;52.448;4.638;2024-01-10T02:20:12;15.10;96.70
17331;DHT22;8783;52.448;4.638;2024-01-10T02:22:38;15.10;96.60
17331;DHT22;8783;52.448;4.638;2024-01-10T02:25:10;15.10;96.60
17331;DHT22;8783;52.448;4.638;2024-01-10T02:27:36;15.10;96.70
17331;DHT22;8783;52.448;4.638;2024-01-10T02:30:03;15.10;96.60
17331;DHT22;8783;52.448;4.638;2024-01-10T02:32:31;15.10;96.60
17331;DHT22;8783;52.448;4.638;2024-01-10T02:34:57;15.10;96.70
17331;DHT22;8783;52.448;4.638;2024-01-10T02:37:23;15.10;96.60
17331;DHT22;8783;52.448;4.638;2024-01-10T02:39:49;15.10;96.60
17331;DHT22;8783;52.448;4.638;2024-01-10T02:42:14;15.10;96.60
17331;DHT22;8783;52.448;4.638;2024-01-10T02:44:40;15.10;96.60
17331;DHT22;8783;52.448;4.638;2024-01-10T02:47:06;15.10;96.60
17331;DHT22;8783;52.448;4.638;2024-01-10T02:49:32;15.10;97.00
17331;DHT22;8783;52.448;4.638;2024-01-10T02:51:58;15.10;96.70
17331;DHT22;8783;52.448;4.638;2024-01-10T02:54:24;15.10;96.70
17331;DHT22;8783;52.448;4.638;2024-01-10T02:56:50;15.10;96.70
17331;DHT22;8783;52.448;4.638;2024-01-10T02:59:15;15.10;96.60
17331;DHT22;8783;52.448;4.638;2024-01-10T03:01:41;15.20;96.70
17331;DHT22;8783;52.448;4.638;2024-01-10T03:04:06;15.20;96.70
17331;DHT22;8783;52.448;4.638;2024-01-10T03:06:32;15.20;96.60
17331;DHT22;8783;52.448;4.638;2024-01-10T03:08:58;15.20;96.70
17331;DHT22;8783;52.448;4.638;2024-01-10T03:11:23;15.20;96.70
17331;DHT22;8783;52.448;4.638;2024-01-10T03:14:04;15.20;96.70
17331;DHT22;8783;52.448;4.638;2024-01-10T03:16:32;15.20;96.70
17331;DHT22;8783;52.448;4.638;2024-01-10T03:18:58;15.20;96.60
17331;DHT22;8783;52.448;4.638;2024-01-10T03:21:24;15.20;96.70
17331;DHT22;8783;52.448;4.638;2024-01-10T03:23:57;15.20;96.60
17331;DHT22;8783;52.448;4.638;2024-01-10T03:26:23;15.20;96.60
17331;DHT22;8783;52.448;4.638;2024-01-10T03:28:49;15.20;96.70
17331;DHT22;8783;52.448;4.638;2024-01-10T03:31:16;15.20;96.60
17331;DHT22;8783;52.448;4.638;2024-01-10T03:33:42;15.20;96.60
17331;DHT22;8783;52.448;4.638;2024-01-10T03:36:11;15.20;96.70
17331;DHT22;8783;52.448;4.638;2024-01-10T03:38:37;15.20;96.70
17331;DHT22;8783;52.448;4.638;2024-01-10T03:41:02;15.20;96.70
17331;DHT22;8783;52.448;4.638;2024-01-10T03:43:28;15.20;96.70
17331;DHT22;8783;52.448;4.638;2024-01-10T03:45:53;15.20;96.60
17331;DHT22;8783;52.448;4.638;2024-01-10T03:48:19;15.20;96.60
17331;DHT22;8783;52.448;4.638;2024-01-10T03:50:45;15.20;96.60
17331;DHT22;8783;52.448;4.638;2024-01-10T03:53:10;15.20;96.60
17331;DHT22;8783;52.448;4.638;2024-01-10T03:55:36;15.20;96.90
17331;DHT22;8783;52.448;4.638;2024-01-10T03:58:01;15.20;96.60
17331;DHT22;8783;52.448;4.638;2024-01-10T04:00:27;15.20;96.50
17331;DHT22;8783;52.448;4.638;2024-01-10T04:02:53;15.20;96.60
17331;DHT22;8783;52.448;4.638;2024-01-10T04:05:19;15.20;96.60
17331;DHT22;8783;52.448;4.638;2024-01-10T04:07:46;15.30;96.70
17331;DHT22;8783;52.448;4.638;2024-01-10T04:10:13;15.30;96.90
17331;DHT22;8783;52.448;4.638;2024-01-10T04:12:43;15.30;97.00
17331;DHT22;8783;52.448;4.638;2024-01-10T04:15:09;15.40;97.10
17331;DHT22;8783;52.448;4.638;2024-01-10T04:17:35;15.40;97.20
17331;DHT22;8783;52.448;4.638;2024-01-10T04:20:01;15.40;97.30
17331;DHT22;8783;52.448;4.638;2024-01-10T04:22:27;15.40;97.30
17331;DHT22;8783;52.448;4.638;2024-01-10T04:24:52;15.50;97.40
17331;DHT22;8783;52.448;4.638;2024-01-10T04:27:18;15.50;97.40
17331;DHT22;8783;52.448;4.638;2024-01-10T04:29:44;15.50;97.40
17331;DHT22;8783;52.448;4.638;2024-01-10T04:32:10;15.50;97.40
17331;DHT22;8783;52.448;4.638;2024-01-10T04:34:35;15.50;97.40
17331;DHT22;8783;52.448;4.638;2024-01-10T04:37:01;15.60;97.50
17331;DHT22;8783;52.448;4.638;2024-01-10T04:39:27;15.60;97.50
17331;DHT22;8783;52.448;4.638;2024-01-10T04:41:52;15.60;97.50
17331;DHT22;8783;52.448;4.638;2024-01-10T04:44:18;15.60;97.50
17331;DHT22;8783;52.448;4.638;2024-01-10T04:46:44;15.70;97.50
17331;DHT22;8783;52.448;4.638;2024-01-10T04:49:09;15.70;97.40
17331;DHT22;8783;52.448;4.638;2024-01-10T04:51:35;15.70;97.50
17331;DHT22;8783;52.448;4.638;2024-01-10T04:54:01;15.70;97.40
17331;DHT22;8783;52.448;4.638;2024-01-10T04:56:27;15.70;97.50
17331;DHT22;8783;52.448;4.638;2024-01-10T04:58:52;15.70;97.50
17331;DHT22;8783;52.448;4.638;2024-01-10T05:01:18;15.80;97.50
17331;DHT22;8783;52.448;4.638;2024-01-10T05:03:44;15.80;97.40
17331;DHT22;8783;52.448;4.638;2024-01-10T05:06:10;15.80;97.40
17331;DHT22;8783;52.448;4.638;2024-01-10T05:08:36;15.80;97.40
17331;DHT22;8783;52.448;4.638;2024-01-10T05:11:01;15.80;97.40
17331;DHT22;8783;52.448;4.638;2024-01-10T05:13:28;15.90;97.40
17331;DHT22;8783;52.448;4.638;2024-01-10T05:15:53;15.90;97.40
17331;DHT22;8783;52.448;4.638;2024-01-10T05:18:20;15.90;97.40
17331;DHT22;8783;52.448;4.638;2024-01-10T05:20:46;15.90;97.40
17331;DHT22;8783;52.448;4.638;2024-01-10T05:23:11;15.90;97.30
17331;DHT22;8783;52.448;4.638;2024-01-10T05:25:37;15.90;97.30
17331;DHT22;8783;52.448;4.638;2024-01-10T05:28:03;15.90;97.30
17331;DHT22;8783;52.448;4.638;2024-01-10T05:30:30;15.90;97.30
17331;DHT22;8783;52.448;4.638;2024-01-10T05:32:55;16.00;97.30
17331;DHT22;8783;52.448;4.638;2024-01-10T05:35:21;16.00;97.30
17331;DHT22;8783;52.448;4.638;2024-01-10T05:37:46;16.00;97.20
17331;DHT22;8783;52.448;4.638;2024-01-10T05:40:12;16.00;97.20
17331;DHT22;8783;52.448;4.638;2024-01-10T05:42:38;16.00;97.20
17331;DHT22;8783;52.448;4.638;2024-01-10T05:45:04;16.10;97.20
17331;DHT22;8783;52.448;4.638;2024-01-10T05:47:31;16.10;97.30
17331;DHT22;8783;52.448;4.638;2024-01-10T05:49:57;16.10;97.20
17331;DHT22;8783;52.448;4.638;2024-01-10T05:52:22;16.10;97.20
17331;DHT22;8783;52.448;4.638;2024-01-10T05:54:48;16.10;97.20
17331;DHT22;8783;52.448;4.638;2024-01-10T05:57:14;16.10;97.20
17331;DHT22;8783;52.448;4.638;2024-01-10T05:59:40;16.10;97.20
17331;DHT22;8783;52.448;4.638;2024-01-10T06:02:06;16.10;97.20
17331;DHT22;8783;52.448;4.638;2024-01-10T06:04:31;16.10;97.20
17331;DHT22;8783;52.448;4.638;2024-01-10T06:07:01;16.20;97.20
17331;DHT22;8783;52.448;4.638;2024-01-10T06:09:26;16.20;97.20
17331;DHT22;8783;52.448;4.638;2024-01-10T06:11:52;16.20;97.20
17331;DHT22;8783;52.448;4.638;2024-01-10T06:14:18;16.20;97.10
17331;DHT22;8783;52.448;4.638;2024-01-10T06:16:44;16.20;97.10
17331;DHT22;8783;52.448;4.638;2024-01-10T06:19:11;16.20;97.10
17331;DHT22;8783;52.448;4.638;2024-01-10T06:21:37;16.20;97.00
17331;DHT22;8783;52.448;4.638;2024-01-10T06:24:03;16.30;97.30
17331;DHT22;8783;52.448;4.638;2024-01-10T06:26:28;16.20;97.00
17331;DHT22;8783;52.448;4.638;2024-01-10T06:28:54;16.30;97.10
17331;DHT22;8783;52.448;4.638;2024-01-10T06:31:20;16.30;97.00
17331;DHT22;8783;52.448;4.638;2024-01-10T06:33:46;16.30;97.10
17331;DHT22;8783;52.448;4.638;2024-01-10T06:36:12;16.30;97.10
17331;DHT22;8783;52.448;4.638;2024-01-10T06:38:40;16.30;97.00
17331;DHT22;8783;52.448;4.638;2024-01-10T06:41:09;16.30;97.00
17331;DHT22;8783;52.448;4.638;2024-01-10T06:43:36;16.30;96.90
17331;DHT22;8783;52.448;4.638;2024-01-10T06:46:02;16.40;97.00
17331;DHT22;8783;52.448;4.638;2024-01-10T06:48:28;16.40;97.00
17331;DHT22;8783;52.448;4.638;2024-01-10T06:50:54;16.40;97.00
17331;DHT22;8783;52.448;4.638;2024-01-10T06:53:21;16.40;97.00
17331;DHT22;8783;52.448;4.638;2024-01-10T06:55:47;16.40;97.10
17331;DHT22;8783;52.448;4.638;2024-01-10T06:58:12;16.40;97.00
17331;DHT22;8783;52.448;4.638;2024-01-10T07:00:38;16.40;96.50
17331;DHT22;8783;52.448;4.638;2024-01-10T07:03:04;16.40;96.10
17331;DHT22;8783;52.448;4.638;2024-01-10T07:05:30;16.40;96.30
17331;DHT22;8783;52.448;4.638;2024-01-10T07:07:59;16.30;96.00
17331;DHT22;8783;52.448;4.638;2024-01-10T07:10:24;16.30;95.00
17331;DHT22;8783;52.448;4.638;2024-01-10T07:12:53;16.30;94.50
17331;DHT22;8783;52.448;4.638;2024-01-10T07:15:19;16.20;94.30
17331;DHT22;8783;52.448;4.638;2024-01-10T07:17:45;16.20;95.00
17331;DHT22;8783;52.448;4.638;2024-01-10T07:20:11;16.10;94.60
17331;DHT22;8783;52.448;4.638;2024-01-10T07:22:38;16.10;95.10
17331;DHT22;8783;52.448;4.638;2024-01-10T07:25:07;16.00;94.70
17331;DHT22;8783;52.448;4.638;2024-01-10T07:27:33;15.90;94.10
17331;DHT22;8783;52.448;4.638;2024-01-10T07:29:59;15.90;94.00
17331;DHT22;8783;52.448;4.638;2024-01-10T07:32:25;15.80;94.20
17331;DHT22;8783;52.448;4.638;2024-01-10T07:34:51;15.80;93.60
17331;DHT22;8783;52.448;4.638;2024-01-10T07:37:16;15.70;93.30
17331;DHT22;8783;52.448;4.638;2024-01-10T07:39:46;15.70;93.50
17331;DHT22;8783;52.448;4.638;2024-01-10T07:42:12;15.60;92.90
17331;DHT22;8783;52.448;4.638;2024-01-10T07:44:37;15.60;93.10
17331;DHT22;8783;52.448;4.638;2024-01-10T07:47:03;15.60;93.20
17331;DHT22;8783;52.448;4.638;2024-01-10T07:49:29;15.60;93.30
17331;DHT22;8783;52.448;4.638;2024-01-10T07:51:56;15.60;93.20
17331;DHT22;8783;52.448;4.638;2024-01-10T07:54:21;15.50;93.20
17331;DHT22;8783;52.448;4.638;2024-01-10T07:56:48;15.50;93.70
17331;DHT22;8783;52.448;4.638;2024-01-10T07:59:13;15.40;93.60
17331;DHT22;8783;52.448;4.638;2024-01-10T08:01:43;15.40;93.40
17331;DHT22;8783;52.448;4.638;2024-01-10T08:04:10;15.30;93.20
17331;DHT22;8783;52.448;4.638;2024-01-10T08:06:35;15.30;92.10
17331;DHT22;8783;52.448;4.638;2024-01-10T08:09:01;15.30;92.70
17331;DHT22;8783;52.448;4.638;2024-01-10T08:11:29;15.20;92.20
17331;DHT22;8783;52.448;4.638;2024-01-10T08:13:55;15.20;92.90
17331;DHT22;8783;52.448;4.638;2024-01-10T08:16:20;15.20;92.30
17331;DHT22;8783;52.448;4.638;2024-01-10T08:18:46;15.10;91.60
17331;DHT22;8783;52.448;4.638;2024-01-10T08:21:12;15.10;91.60
17331;DHT22;8783;52.448;4.638;2024-01-10T08:23:37;15.10;91.40
17331;DHT22;8783;52.448;4.638;2024-01-10T08:26:06;15.10;91.40
17331;DHT22;8783;52.448;4.638;2024-01-10T08:28:33;15.00;91.80
17331;DHT22;8783;52.448;4.638;2024-01-10T08:30:59;15.00;91.30
17331;DHT22;8783;52.448;4.638;2024-01-10T08:33:24;14.90;90.90
17331;DHT22;8783;52.448;4.638;2024-01-10T08:35:50;14.90;90.40
17331;DHT22;8783;52.448;4.638;2024-01-10T08:38:16;14.90;90.60
17331;DHT22;8783;52.448;4.638;2024-01-10T08:40:41;14.80;90.60
17331;DHT22;8783;52.448;4.638;2024-01-10T08:43:07;14.80;90.60
17331;DHT22;8783;52.448;4.638;2024-01-10T08:45:33;14.70;89.90
17331;DHT22;8783;52.448;4.638;2024-01-10T08:47:58;14.70;90.60
17331;DHT22;8783;52.448;4.638;2024-01-10T08:50:24;14.70;91.60
17331;DHT22;8783;52.448;4.638;2024-01-10T08:52:50;14.70;92.10
17331;DHT22;8783;52.448;4.638;2024-01-10T08:55:16;14.70;92.60
17331;DHT22;8783;52.448;4.638;2024-01-10T08:57:41;14.70;92.60
17331;DHT22;8783;52.448;4.638;2024-01-10T09:00:07;14.60;92.70
17331;DHT22;8783;52.448;4.638;2024-01-10T09:02:37;14.70;93.00
17331;DHT22;8783;52.448;4.638;2024-01-10T09:05:03;14.60;93.10
17331;DHT22;8783;52.448;4.638;2024-01-10T09:07:29;14.70;92.80
17331;DHT22;8783;52.448;4.638;2024-01-10T09:09:55;14.70;93.00
17331;DHT22;8783;52.448;4.638;2024-01-10T09:12:21;14.70;93.30
17331;DHT22;8783;52.448;4.638;2024-01-10T09:14:47;14.80;93.30
17331;DHT22;8783;52.448;4.638;2024-01-10T09:17:12;14.70;93.20
17331;DHT22;8783;52.448;4.638;2024-01-10T09:19:38;14.80;93.60
17331;DHT22;8783;52.448;4.638;2024-01-10T09:22:04;14.80;93.40
17331;DHT22;8783;52.448;4.638;2024-01-10T09:24:29;14.80;94.70
17331;DHT22;8783;52.448;4.638;2024-01-10T09:26:55;14.80;94.00
17331;DHT22;8783;52.448;4.638;2024-01-10T09:29:21;14.80;93.80
17331;DHT22;8783;52.448;4.638;2024-01-10T09:31:47;14.80;94.30
17331;DHT22;8783;52.448;4.638;2024-01-10T09:34:12;14.80;94.30
17331;DHT22;8783;52.448;4.638;2024-01-10T09:36:38;14.80;94.40
17331;DHT22;8783;52.448;4.638;2024-01-10T09:39:03;14.80;94.10
17331;DHT22;8783;52.448;4.638;2024-01-10T09:41:32;14.80;94.00
17331;DHT22;8783;52.448;4.638;2024-01-10T09:44:03;14.80;94.40
17331;DHT22;8783;52.448;4.638;2024-01-10T09:46:30;14.80;94.50
17331;DHT22;8783;52.448;4.638;2024-01-10T09:48:58;14.80;94.20
17331;DHT22;8783;52.448;4.638;2024-01-10T09:51:25;14.80;94.40
17331;DHT22;8783;52.448;4.638;2024-01-10T09:53:53;14.80;94.20
17331;DHT22;8783;52.448;4.638;2024-01-10T09:56:20;14.80;94.40
17331;DHT22;8783;52.448;4.638;2024-01-10T09:58:48;14.80;94.30
17331;DHT22;8783;52.448;4.638;2024-01-10T10:01:16;14.80;94.40
17331;DHT22;8783;52.448;4.638;2024-01-10T10:03:45;14.80;94.80
17331;DHT22;8783;52.448;4.638;2024-01-10T10:06:11;14.80;94.70
17331;DHT22;8783;52.448;4.638;2024-01-10T10:08:37;14.80;94.50
17331;DHT22;8783;52.448;4.638;2024-01-10T10:11:03;14.70;94.80
17331;DHT22;8783;52.448;4.638;2024-01-10T10:13:29;14.70;94.70
17331;DHT22;8783;52.448;4.638;2024-01-10T10:16:03;14.70;94.90
17331;DHT22;8783;52.448;4.638;2024-01-10T10:18:32;14.70;94.90
17331;DHT22;8783;52.448;4.638;2024-01-10T10:21:08;14.70;95.00
17331;DHT22;8783;52.448;4.638;2024-01-10T10:23:41;14.70;95.00
17331;DHT22;8783;52.448;4.638;2024-01-10T10:26:15;14.70;95.10
17331;DHT22;8783;52.448;4.638;2024-01-10T10:28:48;14.70;95.10
17331;DHT22;8783;52.448;4.638;2024-01-10T10:31:14;14.60;95.10
17331;DHT22;8783;52.448;4.638;2024-01-10T10:33:41;14.70;95.10
17331;DHT22;8783;52.448;4.638;2024-01-10T10:36:07;14.70;95.20
17331;DHT22;8783;52.448;4.638;2024-01-10T10:38:33;14.60;95.10
17331;DHT22;8783;52.448;4.638;2024-01-10T10:40:59;14.60;95.20
17331;DHT22;8783;52.448;4.638;2024-01-10T10:43:25;14.60;95.10
17331;DHT22;8783;52.448;4.638;2024-01-10T10:45:51;14.60;95.20
17331;DHT22;8783;52.448;4.638;2024-01-10T10:48:18;14.60;95.20
17331;DHT22;8783;52.448;4.638;2024-01-10T10:50:54;14.60;95.30
17331;DHT22;8783;52.448;4.638;2024-01-10T10:53:25;14.60;95.30
17331;DHT22;8783;52.448;4.638;2024-01-10T10:55:53;14.60;95.50
17331;DHT22;8783;52.448;4.638;2024-01-10T10:58:21;14.50;95.40
17331;DHT22;8783;52.448;4.638;2024-01-10T11:00:47;14.50;95.50
17331;DHT22;8783;52.448;4.638;2024-01-10T11:03:13;14.50;95.50
17331;DHT22;8783;52.448;4.638;2024-01-10T11:05:40;14.60;95.50
17331;DHT22;8783;52.448;4.638;2024-01-10T11:08:10;14.50;95.50
17331;DHT22;8783;52.448;4.638;2024-01-10T11:10:39;14.50;95.50
17331;DHT22;8783;52.448;4.638;2024-01-10T11:24:07;14.60;95.70
17331;DHT22;8783;52.448;4.638;2024-01-10T11:26:37;14.50;95.70
17331;DHT22;8783;52.448;4.638;2024-01-10T11:29:04;14.50;95.70
17331;DHT22;8783;52.448;4.638;2024-01-10T11:31:32;14.50;95.70
17331;DHT22;8783;52.448;4.638;2024-01-10T11:33:59;14.50;95.70
17331;DHT22;8783;52.448;4.638;2024-01-10T11:36:25;14.50;95.80
17331;DHT22;8783;52.448;4.638;2024-01-10T11:41:37;14.50;95.90
17331;DHT22;8783;52.448;4.638;2024-01-10T11:46:45;14.50;95.90
17331;DHT22;8783;52.448;4.638;2024-01-10T11:49:13;14.40;96.00
17331;DHT22;8783;52.448;4.638;2024-01-10T11:51:45;14.40;96.00
17331;DHT22;8783;52.448;4.638;2024-01-10T11:54:42;14.40;96.20
17331;DHT22;8783;52.448;4.638;2024-01-10T11:57:11;14.40;96.10
17331;DHT22;8783;52.448;4.638;2024-01-10T11:59:38;14.40;96.10
17331;DHT22;8783;52.448;4.638;2024-01-10T12:02:05;14.40;96.40
17331;DHT22;8783;52.448;4.638;2024-01-10T12:04:32;14.40;96.10
17331;DHT22;8783;52.448;4.638;2024-01-10T12:06:57;14.50;97.20
17331;DHT22;8783;52.448;4.638;2024-01-10T12:09:24;14.50;97.10
17331;DHT22;8783;52.448;4.638;2024-01-10T12:11:50;14.50;96.80
17331;DHT22;8783;52.448;4.638;2024-01-10T12:14:16;14.50;96.80
17331;DHT22;8783;52.448;4.638;2024-01-10T12:16:42;14.40;96.80
17331;DHT22;8783;52.448;4.638;2024-01-10T12:19:08;14.40;96.70
17331;DHT22;8783;52.448;4.638;2024-01-10T12:21:33;14.40;96.70
17331;DHT22;8783;52.448;4.638;2024-01-10T12:23:59;14.40;96.70
17331;DHT22;8783;52.448;4.638;2024-01-10T12:26:25;14.40;96.80
17331;DHT22;8783;52.448;4.638;2024-01-10T12:28:58;14.30;96.70
17331;DHT22;8783;52.448;4.638;2024-01-10T12:31:26;14.30;96.70
17331;DHT22;8783;52.448;4.638;2024-01-10T12:33:52;14.30;96.70
17331;DHT22;8783;52.448;4.638;2024-01-10T12:36:18;14.30;96.70
17331;DHT22;8783;52.448;4.638;2024-01-10T12:38:45;14.30;96.70
17331;DHT22;8783;52.448;4.638;2024-01-10T12:41:11;14.30;96.70
17331;DHT22;8783;52.448;4.638;2024-01-10T12:43:37;14.30;96.60
17331;DHT22;8783;52.448;4.638;2024-01-10T12:46:11;14.30;96.70
17331;DHT22;8783;52.448;4.638;2024-01-10T12:48:38;14.30;96.70
17331;DHT22;8783;52.448;4.638;2024-01-10T12:51:07;14.30;96.60
17331;DHT22;8783;52.448;4.638;2024-01-10T12:53:42;14.30;96.70
17331;DHT22;8783;52.448;4.638;2024-01-10T12:56:09;14.30;96.70
17331;DHT22;8783;52.448;4.638;2024-01-10T12:58:40;14.30;96.70
17331;DHT22;8783;52.448;4.638;2024-01-10T13:01:08;14.30;96.80
17331;DHT22;8783;52.448;4.638;2024-01-10T13:03:34;14.40;96.90
17331;DHT22;8783;52.448;4.638;2024-01-10T13:06:00;14.40;96.90
17331;DHT22;8783;52.448;4.638;2024-01-10T13:08:25;14.40;96.90
17331;DHT22;8783;52.448;4.638;2024-01-10T13:10:51;14.40;97.00
17331;DHT22;8783;52.448;4.638;2024-01-10T13:13:18;14.40;97.00
17331;DHT22;8783;52.448;4.638;2024-01-10T13:15:47;14.40;97.00
17331;DHT22;8783;52.448;4.638;2024-01-10T13:18:13;14.40;97.00
17331;DHT22;8783;52.448;4.638;2024-01-10T13:20:39;14.40;97.10
17331;DHT22;8783;52.448;4.638;2024-01-10T13:23:06;14.40;97.30
17331;DHT22;8783;52.448;4.638;2024-01-10T13:25:34;14.40;97.40
17331;DHT22;8783;52.448;4.638;2024-01-10T13:28:00;14.40;97.50
17331;DHT22;8783;52.448;4.638;2024-01-10T13:30:26;14.40;97.50
17331;DHT22;8783;52.448;4.638;2024-01-10T13:32:52;14.40;97.50
17331;DHT22;8783;52.448;4.638;2024-01-10T13:35:17;14.50;97.60
17331;DHT22;8783;52.448;4.638;2024-01-10T13:37:43;14.50;97.50
17331;DHT22;8783;52.448;4.638;2024-01-10T13:40:10;14.40;97.60
17331;DHT22;8783;52.448;4.638;2024-01-10T13:42:46;14.40;97.50
17331;DHT22;8783;52.448;4.638;2024-01-10T13:45:12;14.40;97.50
17331;DHT22;8783;52.448;4.638;2024-01-10T13:47:38;14.40;97.60
17331;DHT22;8783;52.448;4.638;2024-01-10T13:50:06;14.50;97.60
17331;DHT22;8783;52.448;4.638;2024-01-10T13:52:32;14.50;97.60
17331;DHT22;8783;52.448;4.638;2024-01-10T13:54:58;14.50;97.70
17331;DHT22;8783;52.448;4.638;2024-01-10T13:57:24;14.50;97.90
17331;DHT22;8783;52.448;4.638;2024-01-10T13:59:50;14.50;97.80
17331;DHT22;8783;52.448;4.638;2024-01-10T14:02:15;14.50;97.70
17331;DHT22;8783;52.448;4.638;2024-01-10T14:04:43;14.50;97.70
17331;DHT22;8783;52.448;4.638;2024-01-10T14:07:10;14.50;97.70
17331;DHT22;8783;52.448;4.638;2024-01-10T14:09:35;14.50;97.70
17331;DHT22;8783;52.448;4.638;2024-01-10T14:12:01;14.50;97.60
17331;DHT22;8783;52.448;4.638;2024-01-10T14:14:27;14.50;97.60
17331;DHT22;8783;52.448;4.638;2024-01-10T14:16:52;14.40;97.60
17331;DHT22;8783;52.448;4.638;2024-01-10T14:19:18;14.50;97.60
17331;DHT22;8783;52.448;4.638;2024-01-10T14:21:43;14.40;97.60
17331;DHT22;8783;52.448;4.638;2024-01-10T14:24:11;14.40;97.60
17331;DHT22;8783;52.448;4.638;2024-01-10T14:26:36;14.40;97.60
17331;DHT22;8783;52.448;4.638;2024-01-10T14:29:02;14.40;97.60
17331;DHT22;8783;52.448;4.638;2024-01-10T14:31:28;14.40;97.50
17331;DHT22;8783;52.448;4.638;2024-01-10T14:33:54;14.40;97.50
17331;DHT22;8783;52.448;4.638;2024-01-10T14:36:20;14.40;97.60
17331;DHT22;8783;52.448;4.638;2024-01-10T14:38:46;14.30;97.50
17331;DHT22;8783;52.448;4.638;2024-01-10T14:41:12;14.30;97.50
17331;DHT22;8783;52.448;4.638;2024-01-10T14:43:38;14.30;97.40
17331;DHT22;8783;52.448;4.638;2024-01-10T14:46:04;14.30;97.50
17331;DHT22;8783;52.448;4.638;2024-01-10T14:48:31;14.30;97.40
17331;DHT22;8783;52.448;4.638;2024-01-10T14:50:58;14.30;97.40
17331;DHT22;8783;52.448;4.638;2024-01-10T14:53:25;14.30;97.40
17331;DHT22;8783;52.448;4.638;2024-01-10T14:55:51;14.20;97.40
17331;DHT22;8783;52.448;4.638;2024-01-10T14:58:17;14.30;97.50
17331;DHT22;8783;52.448;4.638;2024-01-10T15:00:44;14.20;97.40
17331;DHT22;8783;52.448;4.638;2024-01-10T15:03:09;14.20;97.30
17331;DHT22;8783;52.448;4.638;2024-01-10T15:05:36;14.20;97.40
17331;DHT22;8783;52.448;4.638;2024-01-10T15:08:01;14.20;97.40
17331;DHT22;8783;52.448;4.638;2024-01-10T15:10:27;14.20;97.40
17331;DHT22;8783;52.448;4.638;2024-01-10T15:12:54;14.10;97.30
17331;DHT22;8783;52.448;4.638;2024-01-10T15:15:19;14.10;97.40
17331;DHT22;8783;52.448;4.638;2024-01-10T15:17:46;14.20;97.30
17331;DHT22;8783;52.448;4.638;2024-01-10T15:20:11;14.10;97.30
17331;DHT22;8783;52.448;4.638;2024-01-10T15:22:37;14.20;97.40
17331;DHT22;8783;52.448;4.638;2024-01-10T15:25:06;14.20;97.40
17331;DHT22;8783;52.448;4.638;2024-01-10T15:27:32;14.10;97.40
17331;DHT22;8783;52.448;4.638;2024-01-10T15:29:58;14.10;97.50
17331;DHT22;8783;52.448;4.638;2024-01-10T15:32:24;14.20;97.50
17331;DHT22;8783;52.448;4.638;2024-01-10T15:34:50;14.20;97.50
17331;DHT22;8783;52.448;4.638;2024-01-10T15:37:15;14.20;97.50
17331;DHT22;8783;52.448;4.638;2024-01-10T15:39:41;14.10;97.60
17331;DHT22;8783;52.448;4.638;2024-01-10T15:42:07;14.20;97.70
17331;DHT22;8783;52.448;4.638;2024-01-10T15:44:38;14.10;97.70
17331;DHT22;8783;52.448;4.638;2024-01-10T15:47:05;14.20;97.70
17331;DHT22;8783;52.448;4.638;2024-01-10T15:49:31;14.10;97.80
17331;DHT22;8783;52.448;4.638;2024-01-10T15:51:56;14.20;97.80
17331;DHT22;8783;52.448;4.638;2024-01-10T15:54:22;14.10;97.80
17331;DHT22;8783;52.448;4.638;2024-01-10T15:56:48;14.20;97.90